createdAt,value
2022-12-06T00:00:32.792Z,99.99
2022-12-06T00:01:32.818Z,99.99
2022-12-06T00:02:32.880Z,99.99
2022-12-06T00:03:32.825Z,99.99
2022-12-06T00:04:32.887Z,99.99
2022-12-06T00:05:32.771Z,99.99
2022-12-06T00:06:32.751Z,99.99
2022-12-06T00:07:32.842Z,99.99
2022-12-06T00:08:32.739Z,99.99
2022-12-06T00:09:32.750Z,99.99
2022-12-06T00:10:32.758Z,99.99
2022-12-06T00:11:32.714Z,99.99
2022-12-06T00:12:32.749Z,99.99
2022-12-06T00:13:32.740Z,99.99
2022-12-06T00:14:32.723Z,99.99
2022-12-06T00:15:32.853Z,99.99
2022-12-06T00:16:32.812Z,99.99
2022-12-06T00:17:32.680Z,99.99
2022-12-06T00:18:32.702Z,99.99
2022-12-06T00:19:32.715Z,99.99
2022-12-06T00:20:32.722Z,99.99
2022-12-06T00:21:32.700Z,99.99
2022-12-06T00:22:32.698Z,99.99
2022-12-06T00:23:32.682Z,99.99
2022-12-06T00:24:32.706Z,99.99
2022-12-06T00:25:32.623Z,99.99
2022-12-06T00:26:32.707Z,99.99
2022-12-06T00:27:32.627Z,99.99
2022-12-06T00:28:32.642Z,99.99
2022-12-06T00:29:32.636Z,99.99
2022-12-06T00:30:32.646Z,99.99
2022-12-06T00:31:32.687Z,99.99
2022-12-06T00:32:32.633Z,99.99
2022-12-06T00:33:32.630Z,99.99
2022-12-06T00:34:32.627Z,99.99
2022-12-06T00:35:32.602Z,99.99
2022-12-06T00:36:32.591Z,99.99
2022-12-06T00:37:32.641Z,99.99
2022-12-06T00:38:32.597Z,99.99
2022-12-06T00:39:32.611Z,99.99
2022-12-06T00:40:32.553Z,99.99
2022-12-06T00:41:32.580Z,99.99
2022-12-06T00:42:32.574Z,99.99
2022-12-06T00:43:33.573Z,99.99
2022-12-06T00:44:32.555Z,99.99
2022-12-06T00:45:32.626Z,99.99
2022-12-06T00:46:32.633Z,99.99
2022-12-06T00:47:32.517Z,99.99
2022-12-06T00:48:32.569Z,99.99
2022-12-06T00:49:32.505Z,99.99
2022-12-06T00:50:32.536Z,99.99
2022-12-06T00:51:32.525Z,99.99
2022-12-06T00:52:32.529Z,99.99
2022-12-06T00:53:32.586Z,99.99
2022-12-06T00:54:32.518Z,99.99
2022-12-06T00:55:32.491Z,99.99
2022-12-06T00:56:32.485Z,99.99
2022-12-06T00:57:32.465Z,99.99
2022-12-06T00:58:32.482Z,99.99
2022-12-06T01:00:04.445Z,99.99
2022-12-06T01:00:32.455Z,99.99
2022-12-06T01:01:32.635Z,99.99
2022-12-06T01:02:32.472Z,99.99
2022-12-06T01:03:35.183Z,99.99
2022-12-06T01:04:33.415Z,99.99
2022-12-06T01:05:32.525Z,99.99
2022-12-06T01:06:32.499Z,99.99
2022-12-06T01:07:32.496Z,99.99
2022-12-06T01:08:32.428Z,99.99
2022-12-06T01:09:32.452Z,99.99
2022-12-06T01:10:32.478Z,99.99
2022-12-06T01:11:33.432Z,99.99
2022-12-06T01:12:32.443Z,99.99
2022-12-06T01:13:32.415Z,99.99
2022-12-06T01:14:32.353Z,99.99
2022-12-06T01:15:32.372Z,99.99
2022-12-06T01:16:32.537Z,99.99
2022-12-06T01:17:32.362Z,99.99
2022-12-06T01:18:32.375Z,99.99
2022-12-06T01:19:32.379Z,99.99
2022-12-06T01:20:32.364Z,99.99
2022-12-06T01:21:32.475Z,99.99
2022-12-06T01:22:32.343Z,99.99
2022-12-06T01:23:32.341Z,99.82
2022-12-06T01:24:32.330Z,99.61
2022-12-06T01:25:35.777Z,99.99
2022-12-06T01:26:33.984Z,99.99
2022-12-06T01:27:32.367Z,99.99
2022-12-06T01:28:32.311Z,99.99
2022-12-06T01:29:32.342Z,99.99
2022-12-06T01:30:32.320Z,98.99
2022-12-06T01:31:37.277Z,99.09
2022-12-06T01:32:33.323Z,99.99
2022-12-06T01:33:32.275Z,98.99
2022-12-06T01:34:32.294Z,98.72
2022-12-06T01:35:32.271Z,99.09
2022-12-06T01:36:32.298Z,99.82
2022-12-06T01:37:32.251Z,99.96
2022-12-06T01:38:32.272Z,99.99
2022-12-06T01:39:32.228Z,99.99
2022-12-06T01:40:32.265Z,99.99
2022-12-06T01:41:32.282Z,99.82
2022-12-06T01:42:32.281Z,99.71
2022-12-06T01:43:32.262Z,99.92
2022-12-06T01:44:32.241Z,99.99
2022-12-06T01:45:32.257Z,99.99
2022-12-06T01:46:32.322Z,99.99
2022-12-06T01:47:32.255Z,99.99
2022-12-06T01:48:32.238Z,99.99
2022-12-06T01:49:32.286Z,99.99
2022-12-06T01:50:32.175Z,99.99
2022-12-06T01:51:32.192Z,99.99
2022-12-06T01:52:32.203Z,99.99
2022-12-06T01:53:32.214Z,99.99
2022-12-06T01:54:32.190Z,99.99
2022-12-06T01:55:32.170Z,99.99
2022-12-06T01:56:32.144Z,99.99
2022-12-06T01:57:32.158Z,99.99
2022-12-06T01:58:32.202Z,99.99
2022-12-06T01:59:32.154Z,99.99
2022-12-06T02:00:32.139Z,99.99
2022-12-06T02:01:32.167Z,99.99
2022-12-06T02:02:32.191Z,99.99
2022-12-06T02:03:32.143Z,99.99
2022-12-06T02:04:32.164Z,99.99
2022-12-06T02:05:36.119Z,99.99
2022-12-06T02:06:34.087Z,99.99
2022-12-06T02:07:32.256Z,99.99
2022-12-06T02:08:32.105Z,99.99
2022-12-06T02:09:32.099Z,99.92
2022-12-06T02:10:32.082Z,99.86
2022-12-06T02:11:35.217Z,99.99
2022-12-06T02:12:33.124Z,99.96
2022-12-06T02:13:32.069Z,99.86
2022-12-06T02:14:32.204Z,99.99
2022-12-06T02:15:32.053Z,99.99
2022-12-06T02:16:32.276Z,99.96
2022-12-06T02:17:32.049Z,99.99
2022-12-06T02:18:32.041Z,99.99
2022-12-06T02:19:32.010Z,99.99
2022-12-06T02:20:32.145Z,99.99
2022-12-06T02:21:32.028Z,99.86
2022-12-06T02:22:31.992Z,99.86
2022-12-06T02:23:32.004Z,99.82
2022-12-06T02:24:32.022Z,99.99
2022-12-06T02:25:34.171Z,99.99
2022-12-06T02:26:32.968Z,99.99
2022-12-06T02:27:31.959Z,99.99
2022-12-06T02:28:32.009Z,99.99
2022-12-06T02:29:31.992Z,99.99
2022-12-06T02:30:32.999Z,99.99
2022-12-06T02:31:32.037Z,99.99
2022-12-06T02:32:31.943Z,99.99
2022-12-06T02:33:31.992Z,99.99
2022-12-06T02:34:31.956Z,99.99
2022-12-06T02:35:31.904Z,99.99
2022-12-06T02:36:31.954Z,99.99
2022-12-06T02:37:31.929Z,99.92
2022-12-06T02:38:31.935Z,99.82
2022-12-06T02:39:31.957Z,99.86
2022-12-06T02:40:31.925Z,99.99
2022-12-06T02:41:31.890Z,99.99
2022-12-06T02:42:31.952Z,99.99
2022-12-06T02:43:31.917Z,99.82
2022-12-06T02:44:31.910Z,99.99
2022-12-06T02:45:31.894Z,99.82
2022-12-06T02:46:31.942Z,99.82
2022-12-06T02:47:31.986Z,99.99
2022-12-06T02:48:31.873Z,99.92
2022-12-06T02:49:31.825Z,99.92
2022-12-06T02:50:31.854Z,99.71
2022-12-06T02:51:31.803Z,99.82
2022-12-06T02:52:31.825Z,99.99
2022-12-06T02:53:31.978Z,99.99
2022-12-06T02:54:31.807Z,99.99
2022-12-06T02:55:31.830Z,99.96
2022-12-06T02:56:31.810Z,99.82
2022-12-06T02:57:31.791Z,99.96
2022-12-06T02:58:31.909Z,99.92
2022-12-06T02:59:31.825Z,99.76
2022-12-06T03:00:31.777Z,99.99
2022-12-06T03:01:31.838Z,99.99
2022-12-06T03:02:31.822Z,99.99
2022-12-06T03:03:31.771Z,99.99
2022-12-06T03:04:31.871Z,99.99
2022-12-06T03:05:31.763Z,99.99
2022-12-06T03:06:31.709Z,99.99
2022-12-06T03:07:31.788Z,99.99
2022-12-06T03:08:31.752Z,99.99
2022-12-06T03:09:31.758Z,99.99
2022-12-06T03:10:31.743Z,99.99
2022-12-06T03:11:31.712Z,99.99
2022-12-06T03:12:31.713Z,99.76
2022-12-06T03:13:31.716Z,99.99
2022-12-06T03:14:31.715Z,99.99
2022-12-06T03:15:31.786Z,99.99
2022-12-06T03:16:31.711Z,99.99
2022-12-06T03:17:31.685Z,99.96
2022-12-06T03:18:31.724Z,99.99
2022-12-06T03:19:31.642Z,99.44
2022-12-06T03:20:31.725Z,99.86
2022-12-06T03:21:31.674Z,99.44
2022-12-06T03:22:34.508Z,99.65
2022-12-06T03:23:31.650Z,99.65
2022-12-06T03:24:31.645Z,99.55
2022-12-06T03:25:31.661Z,99.99
2022-12-06T03:26:31.715Z,98.20
2022-12-06T03:27:31.603Z,98.61
2022-12-06T03:28:31.594Z,98.20
2022-12-06T03:29:31.629Z,99.03
2022-12-06T03:30:31.620Z,99.99
2022-12-06T03:31:31.669Z,99.99
2022-12-06T03:32:31.641Z,99.99
2022-12-06T03:33:31.558Z,99.99
2022-12-06T03:34:31.632Z,99.99
2022-12-06T03:35:31.578Z,99.99
2022-12-06T03:36:31.607Z,99.99
2022-12-06T03:37:31.749Z,99.99
2022-12-06T03:38:31.563Z,99.99
2022-12-06T03:39:31.555Z,99.99
2022-12-06T03:40:31.583Z,99.99
2022-12-06T03:41:31.531Z,99.99
2022-12-06T03:42:31.555Z,99.92
2022-12-06T03:43:31.558Z,99.76
2022-12-06T03:44:31.535Z,99.76
2022-12-06T03:45:31.577Z,99.99
2022-12-06T03:46:31.652Z,99.99
2022-12-06T03:47:31.510Z,99.99
2022-12-06T03:48:31.687Z,99.99
2022-12-06T03:49:31.514Z,99.99
2022-12-06T03:50:31.526Z,99.99
2022-12-06T03:51:31.523Z,99.99
2022-12-06T03:52:31.479Z,99.99
2022-12-06T03:53:31.619Z,99.99
2022-12-06T03:54:31.475Z,99.99
2022-12-06T03:55:32.499Z,99.99
2022-12-06T03:56:31.513Z,99.99
2022-12-06T03:57:31.472Z,99.99
2022-12-06T03:58:31.515Z,99.99
2022-12-06T03:59:31.606Z,99.99
2022-12-06T04:00:31.440Z,99.99
2022-12-06T04:01:31.490Z,99.99
2022-12-06T04:02:31.433Z,99.99
2022-12-06T04:03:31.485Z,99.99
2022-12-06T04:04:31.569Z,99.99
2022-12-06T04:05:31.423Z,99.99
2022-12-06T04:06:31.450Z,99.99
2022-12-06T04:07:31.508Z,99.99
2022-12-06T04:08:31.373Z,99.99
2022-12-06T04:09:31.416Z,99.99
2022-12-06T04:10:31.474Z,99.99
2022-12-06T04:11:31.368Z,99.99
2022-12-06T04:12:31.468Z,99.99
2022-12-06T04:13:31.410Z,99.99
2022-12-06T04:14:31.473Z,99.99
2022-12-06T04:15:31.517Z,99.99
2022-12-06T04:16:31.403Z,99.99
2022-12-06T04:17:31.392Z,99.99
2022-12-06T04:18:31.397Z,99.99
2022-12-06T04:19:31.349Z,99.99
2022-12-06T04:20:31.373Z,99.99
2022-12-06T04:21:31.410Z,99.99
2022-12-06T04:22:31.377Z,99.96
2022-12-06T04:23:31.366Z,99.86
2022-12-06T04:24:31.308Z,99.86
2022-12-06T04:25:31.307Z,99.99
2022-12-06T04:26:31.460Z,99.99
2022-12-06T04:27:31.376Z,99.99
2022-12-06T04:28:31.316Z,99.99
2022-12-06T04:29:31.996Z,99.99
2022-12-06T04:30:31.287Z,99.99
2022-12-06T04:31:31.329Z,98.61
2022-12-06T04:32:31.289Z,98.72
2022-12-06T04:33:31.313Z,99.86
2022-12-06T04:34:31.306Z,98.51
2022-12-06T04:35:31.285Z,98.41
2022-12-06T04:36:31.258Z,98.30
2022-12-06T04:37:31.364Z,98.61
2022-12-06T04:38:31.245Z,98.93
2022-12-06T04:39:31.255Z,98.82
2022-12-06T04:40:31.240Z,99.99
2022-12-06T04:41:31.252Z,99.99
2022-12-06T04:42:31.256Z,99.99
2022-12-06T04:43:31.262Z,99.99
2022-12-06T04:44:31.219Z,99.99
2022-12-06T04:45:31.229Z,99.99
2022-12-06T04:46:31.255Z,99.99
2022-12-06T04:47:31.196Z,99.99
2022-12-06T04:48:31.285Z,99.99
2022-12-06T04:49:31.191Z,99.99
2022-12-06T04:50:31.194Z,99.99
2022-12-06T04:51:31.194Z,99.99
2022-12-06T04:52:35.414Z,99.99
2022-12-06T04:53:32.179Z,99.99
2022-12-06T04:54:31.152Z,99.99
2022-12-06T04:55:31.195Z,99.99
2022-12-06T04:56:31.191Z,99.99
2022-12-06T04:57:31.157Z,99.86
2022-12-06T04:58:31.148Z,99.34
2022-12-06T04:59:31.169Z,98.55
2022-12-06T05:00:31.193Z,99.55
2022-12-06T05:01:31.121Z,99.99
2022-12-06T05:02:31.148Z,99.99
2022-12-06T05:03:31.219Z,99.99
2022-12-06T05:04:31.130Z,99.99
2022-12-06T05:05:31.125Z,99.99
2022-12-06T05:06:31.098Z,99.99
2022-12-06T05:07:31.169Z,99.99
2022-12-06T05:08:31.133Z,99.99
2022-12-06T05:09:31.079Z,99.99
2022-12-06T05:10:31.186Z,99.99
2022-12-06T05:11:31.075Z,99.99
2022-12-06T05:12:31.090Z,99.99
2022-12-06T05:13:31.027Z,99.99
2022-12-06T05:14:31.086Z,99.99
2022-12-06T05:15:31.115Z,99.99
2022-12-06T05:16:31.138Z,99.99
2022-12-06T05:17:31.051Z,99.99
2022-12-06T05:18:31.041Z,99.99
2022-12-06T05:19:31.015Z,99.99
2022-12-06T05:20:31.011Z,99.99
2022-12-06T05:21:31.116Z,99.99
2022-12-06T05:22:31.036Z,99.99
2022-12-06T05:23:31.031Z,99.99
2022-12-06T05:24:30.963Z,99.99
2022-12-06T05:25:30.975Z,99.99
2022-12-06T05:26:31.044Z,99.99
2022-12-06T05:27:35.811Z,99.99
2022-12-06T05:28:31.988Z,99.99
2022-12-06T05:29:30.948Z,99.99
2022-12-06T05:30:30.996Z,99.99
2022-12-06T05:31:31.011Z,99.99
2022-12-06T05:32:30.984Z,99.99
2022-12-06T05:33:30.970Z,99.99
2022-12-06T05:34:31.000Z,99.99
2022-12-06T05:35:30.950Z,99.99
2022-12-06T05:36:30.947Z,99.99
2022-12-06T05:37:31.147Z,99.99
2022-12-06T05:38:30.955Z,99.99
2022-12-06T05:39:30.940Z,99.99
2022-12-06T05:40:30.946Z,99.99
2022-12-06T05:41:30.956Z,99.99
2022-12-06T05:42:30.962Z,99.99
2022-12-06T05:43:30.928Z,99.99
2022-12-06T05:44:30.938Z,99.99
2022-12-06T05:45:30.987Z,99.99
2022-12-06T05:46:30.868Z,99.99
2022-12-06T05:47:30.921Z,99.99
2022-12-06T05:48:30.883Z,99.99
2022-12-06T05:49:30.877Z,99.99
2022-12-06T05:50:30.873Z,99.99
2022-12-06T05:51:30.899Z,99.99
2022-12-06T05:52:30.860Z,99.99
2022-12-06T05:53:30.822Z,99.99
2022-12-06T05:54:30.879Z,99.99
2022-12-06T05:55:30.870Z,99.99
2022-12-06T05:56:30.861Z,99.99
2022-12-06T05:57:30.848Z,99.99
2022-12-06T05:58:30.824Z,99.99
2022-12-06T05:59:30.862Z,99.99
2022-12-06T06:00:30.794Z,99.99
2022-12-06T06:01:30.789Z,99.99
2022-12-06T06:02:31.172Z,99.99
2022-12-06T06:03:30.869Z,99.99
2022-12-06T06:04:30.779Z,99.99
2022-12-06T06:05:30.926Z,99.99
2022-12-06T06:06:30.795Z,99.99
2022-12-06T06:07:30.805Z,99.99
2022-12-06T06:08:30.807Z,99.99
2022-12-06T06:09:30.826Z,99.99
2022-12-06T06:10:30.753Z,99.99
2022-12-06T06:11:30.731Z,99.99
2022-12-06T06:12:30.730Z,99.99
2022-12-06T06:13:30.748Z,99.99
2022-12-06T06:14:30.753Z,99.99
2022-12-06T06:15:30.731Z,99.99
2022-12-06T06:16:31.864Z,99.99
2022-12-06T06:17:30.730Z,99.99
2022-12-06T06:18:30.701Z,99.99
2022-12-06T06:19:30.719Z,99.99
2022-12-06T06:20:30.692Z,99.99
2022-12-06T06:21:30.707Z,99.99
2022-12-06T06:22:30.739Z,99.99
2022-12-06T06:23:30.693Z,99.99
2022-12-06T06:24:30.652Z,99.99
2022-12-06T06:25:30.697Z,99.99
2022-12-06T06:26:31.144Z,99.99
2022-12-06T06:27:30.817Z,99.99
2022-12-06T06:28:30.632Z,99.99
2022-12-06T06:29:30.659Z,99.99
2022-12-06T06:30:30.682Z,99.99
2022-12-06T06:31:30.718Z,99.99
2022-12-06T06:32:30.621Z,99.99
2022-12-06T06:33:30.670Z,99.99
2022-12-06T06:34:30.637Z,99.99
2022-12-06T06:35:30.647Z,99.99
2022-12-06T06:36:30.637Z,99.99
2022-12-06T06:37:30.651Z,99.99
2022-12-06T06:38:30.673Z,99.99
2022-12-06T06:39:30.591Z,99.99
2022-12-06T06:40:30.617Z,99.99
2022-12-06T06:41:30.579Z,99.99
2022-12-06T06:42:30.620Z,99.99
2022-12-06T06:43:30.578Z,99.99
2022-12-06T06:44:30.622Z,99.99
2022-12-06T06:45:30.555Z,99.99
2022-12-06T06:46:30.580Z,99.99
2022-12-06T06:47:30.548Z,99.99
2022-12-06T06:48:30.577Z,99.99
2022-12-06T06:49:30.588Z,99.99
2022-12-06T06:50:30.568Z,99.99
2022-12-06T06:51:30.516Z,99.99
2022-12-06T06:52:30.544Z,99.99
2022-12-06T06:53:30.564Z,99.99
2022-12-06T06:54:30.526Z,99.99
2022-12-06T06:55:30.609Z,99.99
2022-12-06T06:56:30.533Z,99.99
2022-12-06T06:57:30.473Z,99.99
2022-12-06T06:58:30.499Z,99.99
2022-12-06T06:59:30.482Z,99.99
2022-12-06T07:01:02.605Z,99.99
2022-12-06T07:01:30.540Z,99.99
2022-12-06T07:02:30.531Z,99.99
2022-12-06T07:03:30.454Z,99.99
2022-12-06T07:04:30.488Z,99.99
2022-12-06T07:05:30.448Z,99.99
2022-12-06T07:06:30.507Z,99.99
2022-12-06T07:07:30.472Z,99.99
2022-12-06T07:08:30.447Z,99.99
2022-12-06T07:09:30.407Z,99.99
2022-12-06T07:10:30.457Z,99.99
2022-12-06T07:11:30.481Z,99.99
2022-12-06T07:12:30.417Z,99.99
2022-12-06T07:13:30.438Z,99.99
2022-12-06T07:14:30.418Z,99.99
2022-12-06T07:15:30.436Z,99.99
2022-12-06T07:16:30.510Z,99.99
2022-12-06T07:17:31.434Z,99.99
2022-12-06T07:18:30.414Z,99.99
2022-12-06T07:19:30.417Z,99.99
2022-12-06T07:20:30.392Z,99.99
2022-12-06T07:21:30.422Z,99.99
2022-12-06T07:22:30.500Z,99.99
2022-12-06T07:23:30.396Z,99.99
2022-12-06T07:24:30.369Z,99.99
2022-12-06T07:25:30.388Z,99.99
2022-12-06T07:26:30.347Z,99.99
2022-12-06T07:27:30.347Z,99.99
2022-12-06T07:28:30.372Z,99.99
2022-12-06T07:29:30.339Z,99.99
2022-12-06T07:30:30.351Z,99.99
2022-12-06T07:31:30.372Z,99.99
2022-12-06T07:32:30.315Z,99.99
2022-12-06T07:33:30.327Z,99.99
2022-12-06T07:34:30.350Z,99.99
2022-12-06T07:35:55.456Z,99.99
2022-12-06T07:36:31.403Z,99.99
2022-12-06T07:37:30.278Z,99.99
2022-12-06T07:38:30.296Z,99.99
2022-12-06T07:39:30.480Z,99.99
2022-12-06T07:40:56.018Z,99.99
2022-12-06T07:41:31.293Z,99.99
2022-12-06T07:42:30.237Z,99.99
2022-12-06T07:43:30.244Z,99.99
2022-12-06T07:44:30.353Z,99.99
2022-12-06T07:45:30.256Z,99.99
2022-12-06T07:46:30.335Z,99.99
2022-12-06T07:47:30.236Z,99.99
2022-12-06T07:48:30.214Z,99.99
2022-12-06T07:49:30.236Z,99.99
2022-12-06T07:50:30.322Z,99.99
2022-12-06T07:51:30.201Z,99.99
2022-12-06T07:52:30.193Z,99.99
2022-12-06T07:53:30.178Z,99.99
2022-12-06T07:54:30.224Z,99.99
2022-12-06T07:55:30.240Z,99.99
2022-12-06T07:56:30.206Z,99.99
2022-12-06T07:57:30.210Z,99.99
2022-12-06T07:58:30.199Z,99.99
2022-12-06T07:59:30.213Z,99.99
2022-12-06T08:00:30.187Z,99.99
2022-12-06T08:01:30.336Z,99.99
2022-12-06T08:02:30.170Z,99.99
2022-12-06T08:03:30.158Z,99.99
2022-12-06T08:04:30.219Z,99.99
2022-12-06T08:05:30.174Z,99.99
2022-12-06T08:06:30.215Z,99.99
2022-12-06T08:07:30.154Z,99.99
2022-12-06T08:08:30.208Z,99.99
2022-12-06T08:09:30.100Z,99.99
2022-12-06T08:10:30.127Z,99.99
2022-12-06T08:11:30.097Z,99.99
2022-12-06T08:12:31.061Z,99.99
2022-12-06T08:13:30.118Z,99.99
2022-12-06T08:14:30.161Z,99.99
2022-12-06T08:15:30.066Z,99.99
2022-12-06T08:16:30.167Z,99.99
2022-12-06T08:17:30.115Z,99.99
2022-12-06T08:18:30.081Z,99.99
2022-12-06T08:19:30.065Z,99.99
2022-12-06T08:20:30.068Z,99.99
2022-12-06T08:21:30.036Z,99.99
2022-12-06T08:22:30.065Z,99.99
2022-12-06T08:23:34.181Z,99.99
2022-12-06T08:24:30.053Z,99.99
2022-12-06T08:25:30.051Z,99.99
2022-12-06T08:26:30.018Z,99.99
2022-12-06T08:27:30.056Z,99.99
2022-12-06T08:28:30.093Z,99.99
2022-12-06T08:29:30.033Z,99.99
2022-12-06T08:30:30.022Z,99.99
2022-12-06T08:31:30.110Z,99.99
2022-12-06T08:32:29.994Z,99.99
2022-12-06T08:33:29.999Z,99.99
2022-12-06T08:34:30.116Z,99.99
2022-12-06T08:35:30.012Z,99.99
2022-12-06T08:36:29.963Z,99.99
2022-12-06T08:37:29.969Z,99.99
2022-12-06T08:38:29.950Z,99.99
2022-12-06T08:39:30.004Z,99.99
2022-12-06T08:40:29.952Z,99.99
2022-12-06T08:41:29.974Z,99.99
2022-12-06T08:42:29.965Z,99.99
2022-12-06T08:43:29.956Z,99.99
2022-12-06T08:44:29.923Z,99.99
2022-12-06T08:45:30.061Z,99.99
2022-12-06T08:46:30.082Z,99.99
2022-12-06T08:47:29.903Z,99.99
2022-12-06T08:48:29.922Z,99.99
2022-12-06T08:49:29.911Z,99.99
2022-12-06T08:50:29.922Z,99.99
2022-12-06T08:51:29.887Z,99.99
2022-12-06T08:52:29.870Z,99.99
2022-12-06T08:53:29.872Z,99.99
2022-12-06T08:54:29.899Z,99.99
2022-12-06T08:55:29.889Z,99.99
2022-12-06T08:56:30.008Z,99.99
2022-12-06T08:57:29.859Z,99.99
2022-12-06T08:58:29.886Z,99.99
2022-12-06T08:59:29.841Z,99.99
2022-12-06T09:00:29.865Z,99.99
2022-12-06T09:01:35.706Z,99.99
2022-12-06T09:02:31.844Z,99.99
2022-12-06T09:03:29.810Z,99.99
2022-12-06T09:04:29.927Z,99.99
2022-12-06T09:05:29.804Z,99.99
2022-12-06T09:06:29.806Z,99.99
2022-12-06T09:07:29.937Z,99.99
2022-12-06T09:08:29.845Z,99.99
2022-12-06T09:09:29.823Z,99.99
2022-12-06T09:10:29.786Z,99.99
2022-12-06T09:11:29.795Z,99.99
2022-12-06T09:12:29.778Z,99.99
2022-12-06T09:13:29.806Z,99.99
2022-12-06T09:14:29.774Z,99.99
2022-12-06T09:15:29.778Z,99.99
2022-12-06T09:16:29.779Z,99.99
2022-12-06T09:17:29.742Z,99.99
2022-12-06T09:18:29.846Z,99.99
2022-12-06T09:19:29.771Z,99.99
2022-12-06T09:20:29.731Z,99.99
2022-12-06T09:21:29.725Z,99.99
2022-12-06T09:22:29.734Z,99.99
2022-12-06T09:23:29.731Z,99.99
2022-12-06T09:24:29.734Z,99.99
2022-12-06T09:25:29.713Z,99.99
2022-12-06T09:26:29.716Z,99.99
2022-12-06T09:27:29.693Z,99.87
2022-12-06T09:28:29.712Z,99.99
2022-12-06T09:29:29.812Z,99.99
2022-12-06T09:30:29.698Z,99.99
2022-12-06T09:31:29.725Z,99.99
2022-12-06T09:32:29.661Z,99.99
2022-12-06T09:33:29.689Z,99.99
2022-12-06T09:34:29.796Z,99.99
2022-12-06T09:35:29.644Z,99.99
2022-12-06T09:36:29.651Z,99.99
2022-12-06T09:37:29.663Z,99.99
2022-12-06T09:38:29.630Z,99.99
2022-12-06T09:39:29.651Z,99.99
2022-12-06T09:40:29.642Z,99.99
2022-12-06T09:41:29.637Z,99.99
2022-12-06T09:42:29.620Z,99.99
2022-12-06T09:43:29.670Z,99.99
2022-12-06T09:44:29.616Z,99.99
2022-12-06T09:45:29.738Z,99.99
2022-12-06T09:46:29.700Z,99.99
2022-12-06T09:47:29.559Z,99.99
2022-12-06T09:48:29.596Z,99.99
2022-12-06T09:49:29.596Z,99.99
2022-12-06T09:50:30.578Z,99.99
2022-12-06T09:51:29.604Z,99.66
2022-12-06T09:52:29.558Z,99.66
2022-12-06T09:53:29.519Z,99.99
2022-12-06T09:54:29.556Z,99.66
2022-12-06T09:55:29.550Z,99.71
2022-12-06T09:56:29.556Z,99.46
2022-12-06T09:57:29.538Z,98.73
2022-12-06T09:58:29.573Z,99.66
2022-12-06T09:59:29.510Z,99.99
2022-12-06T10:00:29.509Z,99.99
2022-12-06T10:01:29.691Z,99.87
2022-12-06T10:02:29.550Z,99.77
2022-12-06T10:03:29.594Z,99.87
2022-12-06T10:04:29.487Z,99.56
2022-12-06T10:05:29.490Z,98.83
2022-12-06T10:06:29.469Z,99.99
2022-12-06T10:07:29.514Z,99.87
2022-12-06T10:08:29.613Z,99.87
2022-12-06T10:09:29.491Z,99.66
2022-12-06T10:10:29.447Z,98.94
2022-12-06T10:11:29.518Z,99.25
2022-12-06T10:12:29.444Z,99.15
2022-12-06T10:13:29.461Z,98.42
2022-12-06T10:14:29.513Z,98.11
2022-12-06T10:15:29.439Z,98.21
2022-12-06T10:16:29.500Z,98.21
2022-12-06T10:17:29.418Z,99.25
2022-12-06T10:18:30.109Z,98.94
2022-12-06T10:19:29.499Z,98.94
2022-12-06T10:20:29.395Z,99.04
2022-12-06T10:21:29.467Z,99.15
2022-12-06T10:22:29.391Z,98.52
2022-12-06T10:23:29.505Z,98.32
2022-12-06T10:24:29.364Z,98.73
2022-12-06T10:25:29.437Z,99.15
2022-12-06T10:26:29.385Z,99.46
2022-12-06T10:27:29.384Z,99.66
2022-12-06T10:28:29.394Z,99.77
2022-12-06T10:29:30.034Z,99.99
2022-12-06T10:30:29.317Z,98.32
2022-12-06T10:31:29.437Z,98.69
2022-12-06T10:32:29.348Z,97.59
2022-12-06T10:33:29.319Z,97.75
2022-12-06T10:34:29.452Z,97.38
2022-12-06T10:35:29.350Z,98.38
2022-12-06T10:36:29.323Z,98.79
2022-12-06T10:37:29.304Z,99.00
2022-12-06T10:38:29.284Z,99.82
2022-12-06T10:39:29.303Z,98.07
2022-12-06T10:40:29.325Z,97.75
2022-12-06T10:41:29.334Z,98.38
2022-12-06T10:42:29.279Z,97.96
2022-12-06T10:43:29.254Z,98.27
2022-12-06T10:44:29.270Z,98.17
2022-12-06T10:45:29.300Z,98.27
2022-12-06T10:46:29.331Z,97.86
2022-12-06T10:47:29.237Z,98.27
2022-12-06T10:48:29.229Z,99.62
2022-12-06T10:49:29.268Z,98.90
2022-12-06T10:50:29.239Z,99.62
2022-12-06T10:51:29.278Z,99.72
2022-12-06T10:52:29.215Z,98.79
2022-12-06T10:53:29.242Z,98.79
2022-12-06T10:54:29.197Z,99.41
2022-12-06T10:55:29.193Z,99.62
2022-12-06T10:56:29.223Z,99.99
2022-12-06T10:57:29.195Z,99.68
2022-12-06T10:58:29.190Z,98.90
2022-12-06T10:59:29.168Z,99.00
2022-12-06T11:00:29.279Z,99.99
2022-12-06T11:01:29.217Z,99.62
2022-12-06T11:02:29.258Z,99.99
2022-12-06T11:03:29.169Z,99.99
2022-12-06T11:04:29.128Z,99.78
2022-12-06T11:05:29.133Z,99.88
2022-12-06T11:06:29.146Z,99.99
2022-12-06T11:07:29.258Z,99.68
2022-12-06T11:08:29.172Z,99.88
2022-12-06T11:09:29.092Z,98.64
2022-12-06T11:10:29.120Z,98.12
2022-12-06T11:11:29.142Z,98.79
2022-12-06T11:12:31.455Z,99.57
2022-12-06T11:13:30.113Z,99.16
2022-12-06T11:14:29.114Z,98.90
2022-12-06T11:15:29.077Z,98.90
2022-12-06T11:16:29.139Z,98.43
2022-12-06T11:17:29.208Z,98.74
2022-12-06T11:18:29.079Z,99.41
2022-12-06T11:19:29.082Z,98.69
2022-12-06T11:20:29.034Z,98.64
2022-12-06T11:21:29.013Z,98.48
2022-12-06T11:22:29.028Z,99.72
2022-12-06T11:23:29.061Z,98.90
2022-12-06T11:24:29.004Z,98.38
2022-12-06T11:25:29.044Z,98.12
2022-12-06T11:26:29.023Z,98.58
2022-12-06T11:27:29.001Z,98.33
2022-12-06T11:28:29.034Z,98.38
2022-12-06T11:29:29.007Z,98.69
2022-12-06T11:30:28.979Z,98.79
2022-12-06T11:31:29.089Z,98.33
2022-12-06T11:32:29.017Z,99.16
2022-12-06T11:33:28.966Z,99.10
2022-12-06T11:34:29.083Z,98.85
2022-12-06T11:35:28.975Z,98.58
2022-12-06T11:36:28.967Z,98.33
2022-12-06T11:37:28.952Z,98.64
2022-12-06T11:38:29.152Z,98.38
2022-12-06T11:39:28.993Z,98.74
2022-12-06T11:40:28.950Z,98.17
2022-12-06T11:41:28.919Z,98.69
2022-12-06T11:42:28.925Z,98.48
2022-12-06T11:43:28.918Z,98.38
2022-12-06T11:44:28.906Z,98.48
2022-12-06T11:45:28.956Z,99.00
2022-12-06T11:46:28.953Z,98.90
2022-12-06T11:47:28.937Z,99.41
2022-12-06T11:48:28.876Z,99.10
2022-12-06T11:49:28.894Z,98.64
2022-12-06T11:50:28.937Z,98.90
2022-12-06T11:51:28.834Z,99.93
2022-12-06T11:52:28.870Z,99.62
2022-12-06T11:53:28.858Z,99.52
2022-12-06T11:54:28.821Z,98.79
2022-12-06T11:55:28.831Z,99.41
2022-12-06T11:56:28.852Z,99.31
2022-12-06T11:57:28.837Z,99.99
2022-12-06T11:58:28.841Z,99.52
2022-12-06T11:59:28.784Z,99.82
2022-12-06T12:00:31.056Z,99.99
2022-12-06T12:01:28.927Z,99.88
2022-12-06T12:02:28.900Z,99.37
2022-12-06T12:03:28.877Z,99.57
2022-12-06T12:04:28.793Z,99.16
2022-12-06T12:05:28.748Z,99.88
2022-12-06T12:06:28.781Z,98.85
2022-12-06T12:07:28.836Z,99.05
2022-12-06T12:08:32.607Z,98.22
2022-12-06T12:09:29.793Z,98.90
2022-12-06T12:10:28.758Z,98.58
2022-12-06T12:11:28.733Z,98.85
2022-12-06T12:12:28.781Z,98.85
2022-12-06T12:13:28.744Z,99.41
2022-12-06T12:14:28.696Z,99.10
2022-12-06T12:15:28.721Z,99.31
2022-12-06T12:16:28.773Z,99.88
2022-12-06T12:17:28.696Z,99.26
2022-12-06T12:18:28.738Z,99.37
2022-12-06T12:19:28.684Z,99.88
2022-12-06T12:20:28.701Z,99.78
2022-12-06T12:21:28.716Z,99.57
2022-12-06T12:22:28.668Z,99.99
2022-12-06T12:23:28.670Z,99.99
2022-12-06T12:24:28.683Z,98.95
2022-12-06T12:25:28.634Z,99.99
2022-12-06T12:26:28.638Z,99.99
2022-12-06T12:27:28.854Z,99.47
2022-12-06T12:28:28.655Z,99.57
2022-12-06T12:29:28.789Z,99.78
2022-12-06T12:30:28.639Z,99.78
2022-12-06T12:31:28.674Z,99.88
2022-12-06T12:32:28.619Z,99.68
2022-12-06T12:33:28.617Z,99.99
2022-12-06T12:34:28.623Z,99.99
2022-12-06T12:35:28.620Z,99.57
2022-12-06T12:36:28.607Z,99.57
2022-12-06T12:37:28.563Z,99.57
2022-12-06T12:38:28.595Z,99.88
2022-12-06T12:39:28.567Z,99.99
2022-12-06T12:40:28.619Z,99.57
2022-12-06T12:41:28.558Z,99.05
2022-12-06T12:42:28.578Z,97.91
2022-12-06T12:43:28.549Z,98.33
2022-12-06T12:44:37.732Z,98.85
2022-12-06T12:45:30.717Z,98.95
2022-12-06T12:46:28.574Z,98.80
2022-12-06T12:47:28.531Z,99.52
2022-12-06T12:48:28.512Z,99.11
2022-12-06T12:49:28.531Z,98.33
2022-12-06T12:50:28.510Z,98.80
2022-12-06T12:51:29.509Z,98.80
2022-12-06T12:52:28.520Z,99.32